createdAt,value
2019-04-02T00:02:20.217Z,10.92
2019-04-02T00:04:46.342Z,10.93
2019-04-02T00:07:12.402Z,10.83
2019-04-02T00:09:38.222Z,10.83
2019-04-02T00:12:04.028Z,10.78
2019-04-02T00:14:30.149Z,10.66
2019-04-02T00:16:56.252Z,10.61
2019-04-02T00:19:22.088Z,10.70
2019-04-02T00:21:47.895Z,10.65
2019-04-02T00:24:13.965Z,10.59
2019-04-02T00:26:40.041Z,10.48
2019-04-02T00:29:05.847Z,10.46
2019-04-02T00:31:31.921Z,10.47
2019-04-02T00:33:58.023Z,10.39
2019-04-02T00:36:23.841Z,10.36
2019-04-02T00:38:52.419Z,10.33
2019-04-02T00:41:18.241Z,10.30
2019-04-02T00:43:46.796Z,10.18
2019-04-02T00:46:12.586Z,10.18
2019-04-02T00:48:41.429Z,10.14
2019-04-02T00:51:08.236Z,10.08
2019-04-02T00:53:38.029Z,10.13
2019-04-02T00:56:03.981Z,10.07
2019-04-02T00:58:33.090Z,10.01
2019-04-02T01:00:59.002Z,9.99
2019-04-02T01:03:25.120Z,10.02
2019-04-02T01:05:50.926Z,10.01
2019-04-02T01:08:17.018Z,10.01
2019-04-02T01:10:43.303Z,9.97
2019-04-02T01:13:09.160Z,10.02
2019-04-02T01:15:37.847Z,10.00
2019-04-02T01:18:03.952Z,9.94
2019-04-02T01:20:32.788Z,10.02
2019-04-02T01:22:58.616Z,10.01
2019-04-02T01:25:27.852Z,9.92
2019-04-02T01:27:53.755Z,9.96
2019-04-02T01:30:22.584Z,10.05
2019-04-02T01:32:48.422Z,10.07
2019-04-02T01:35:17.043Z,10.00
2019-04-02T01:37:42.854Z,9.92
2019-04-02T01:40:08.949Z,9.90
2019-04-02T01:42:34.775Z,9.92
2019-04-02T01:45:00.933Z,9.86
2019-04-02T01:47:29.514Z,9.79
2019-04-02T01:49:55.310Z,9.80
2019-04-02T01:52:24.017Z,9.66
2019-04-02T01:54:50.098Z,9.66
2019-04-02T01:57:17.092Z,9.04
2019-04-02T01:59:42.898Z,9.54
2019-04-02T02:02:13.168Z,9.34
2019-04-02T02:04:38.985Z,9.20
2019-04-02T02:07:07.551Z,9.24
2019-04-02T02:09:34.151Z,9.18
2019-04-02T02:12:04.045Z,9.16
2019-04-02T02:14:29.834Z,9.22
2019-04-02T02:16:55.650Z,9.27
2019-04-02T02:19:21.740Z,9.25
2019-04-02T02:21:47.571Z,9.29
2019-04-02T02:24:13.473Z,9.25
2019-04-02T02:26:39.312Z,9.17
2019-04-02T02:29:08.020Z,9.08
2019-04-02T02:31:35.973Z,9.07
2019-04-02T02:34:06.932Z,9.15
2019-04-02T02:36:32.901Z,9.15
2019-04-02T02:38:58.722Z,9.21
2019-04-02T02:41:59.209Z,9.25
2019-04-02T02:44:25.106Z,9.31
2019-04-02T02:46:50.905Z,9.28
2019-04-02T02:49:17.683Z,9.28
2019-04-02T02:51:44.102Z,9.28
2019-04-02T02:54:09.877Z,9.31
2019-04-02T02:56:35.685Z,9.34
2019-04-02T02:59:01.502Z,9.36
2019-04-02T03:01:27.806Z,9.33
2019-04-02T03:03:53.969Z,9.30
2019-04-02T03:06:20.076Z,9.18
2019-04-02T03:08:45.862Z,9.15
2019-04-02T03:11:12.029Z,9.26
2019-04-02T03:13:38.099Z,9.19
2019-04-02T03:16:03.987Z,9.14
2019-04-02T03:18:29.780Z,9.13
2019-04-02T03:20:55.952Z,9.12
2019-04-02T03:23:22.046Z,8.98
2019-04-02T03:25:47.836Z,8.77
2019-04-02T03:28:13.653Z,8.58
2019-04-02T03:30:39.836Z,8.61
2019-04-02T03:33:05.946Z,8.68
2019-04-02T03:35:33.486Z,8.71
2019-04-02T03:37:59.504Z,8.75
2019-04-02T03:40:25.565Z,8.76
2019-04-02T03:42:51.668Z,8.72
2019-04-02T03:45:17.460Z,8.65
2019-04-02T03:47:44.324Z,8.38
2019-04-02T03:50:10.866Z,8.32
2019-04-02T03:52:36.666Z,8.12
2019-04-02T03:55:04.186Z,8.05
2019-04-02T03:57:30.375Z,7.76
2019-04-02T03:59:56.212Z,7.77
2019-04-02T04:04:53.684Z,7.56
2019-04-02T04:07:21.855Z,7.52
2019-04-02T04:09:48.209Z,7.63
2019-04-02T04:12:14.181Z,7.81
2019-04-02T04:14:40.278Z,7.84
2019-04-02T04:17:06.110Z,7.87
2019-04-02T04:19:31.917Z,7.96
2019-04-02T04:21:57.741Z,7.97
2019-04-02T04:24:24.609Z,7.80
2019-04-02T04:26:51.540Z,7.81
2019-04-02T04:29:17.332Z,7.86
2019-04-02T04:31:43.144Z,7.94
2019-04-02T04:34:10.663Z,7.98
2019-04-02T04:36:36.830Z,7.99
2019-04-02T04:39:04.670Z,7.95
2019-04-02T04:41:30.748Z,7.87
2019-04-02T04:43:56.824Z,7.92
2019-04-02T04:46:22.630Z,7.93
2019-04-02T04:48:48.699Z,8.07
2019-04-02T04:51:14.795Z,7.97
2019-04-02T04:53:40.644Z,8.05
2019-04-02T04:56:09.784Z,8.10
2019-04-02T04:58:35.578Z,8.05
2019-04-02T05:01:04.943Z,8.11
2019-04-02T05:04:08.250Z,8.05
2019-04-02T05:06:34.090Z,8.09
2019-04-02T05:08:59.867Z,8.16
2019-04-02T05:11:25.652Z,8.22
2019-04-02T05:13:51.719Z,8.27
2019-04-02T05:16:17.547Z,8.37
2019-04-02T05:18:45.564Z,8.39
2019-04-02T05:21:11.090Z,8.42
2019-04-02T05:23:36.900Z,8.46
2019-04-02T05:26:02.725Z,8.49
2019-04-02T05:28:28.521Z,8.54
2019-04-02T05:30:54.351Z,8.52
2019-04-02T05:33:20.448Z,8.58
2019-04-02T05:35:46.486Z,8.56
2019-04-02T05:38:12.329Z,8.56
2019-04-02T05:40:38.372Z,8.71
2019-04-02T05:43:04.185Z,8.86
2019-04-02T05:45:30.005Z,9.00
2019-04-02T05:47:55.788Z,9.05
2019-04-02T05:50:21.623Z,9.04
2019-04-02T05:52:47.700Z,9.06
2019-04-02T05:55:13.494Z,9.12
2019-04-02T05:57:39.395Z,9.12
2019-04-02T06:00:05.905Z,9.19
2019-04-02T06:02:31.720Z,9.15
2019-04-02T06:04:57.512Z,9.22
2019-04-02T06:07:23.334Z,9.33
2019-04-02T06:09:49.143Z,9.33
2019-04-02T06:12:14.942Z,9.16
2019-04-02T06:14:40.795Z,9.58
2019-04-02T06:17:06.625Z,9.68
2019-04-02T06:19:32.412Z,9.78
2019-04-02T06:21:58.506Z,9.89
2019-04-02T06:24:24.323Z,10.03
2019-04-02T06:26:50.150Z,10.11
2019-04-02T06:29:18.697Z,10.30
2019-04-02T06:31:44.541Z,10.38
2019-04-02T06:34:10.324Z,10.40
2019-04-02T06:36:37.010Z,10.55
2019-04-02T06:39:10.865Z,10.64
2019-04-02T06:41:37.045Z,10.66
2019-04-02T06:44:04.531Z,10.66
2019-04-02T06:46:30.717Z,10.85
2019-04-02T06:49:08.080Z,10.94
2019-04-02T06:51:34.187Z,11.04
2019-04-02T06:54:00.029Z,11.30
2019-04-02T06:56:26.362Z,11.49
2019-04-02T06:58:52.835Z,11.66
2019-04-02T07:01:31.699Z,11.88
2019-04-02T07:03:46.616Z,12.21
2019-04-02T07:06:12.406Z,12.22
2019-04-02T07:08:47.063Z,12.34
2019-04-02T07:11:06.192Z,12.55
2019-04-02T07:13:32.057Z,12.80
2019-04-02T07:15:58.236Z,13.19
2019-04-02T07:18:24.823Z,13.56
2019-04-02T07:20:50.917Z,13.82
2019-04-02T07:23:16.744Z,14.19
2019-04-02T07:25:43.220Z,14.32
2019-04-02T07:28:09.088Z,14.31
2019-04-02T07:30:35.391Z,14.41
2019-04-02T07:33:01.362Z,14.72
2019-04-02T07:35:27.177Z,15.21
2019-04-02T07:37:55.940Z,15.35
2019-04-02T07:40:21.724Z,15.38
2019-04-02T07:42:50.314Z,15.31
2019-04-02T07:45:16.220Z,15.54
2019-04-02T07:47:42.320Z,15.87
2019-04-02T07:50:09.665Z,15.88
2019-04-02T07:52:35.723Z,15.78
2019-04-02T07:55:01.899Z,16.35
2019-04-02T07:57:27.697Z,16.87
2019-04-02T07:59:56.790Z,17.49
2019-04-02T08:02:22.687Z,17.89
2019-04-02T08:04:51.534Z,18.08
2019-04-02T08:07:17.542Z,18.19
2019-04-02T08:09:46.379Z,18.89
2019-04-02T08:12:12.233Z,19.41
2019-04-02T08:14:40.825Z,19.23
2019-04-02T08:17:06.905Z,19.55
2019-04-02T08:19:35.946Z,19.49
2019-04-02T08:22:01.762Z,19.71
2019-04-02T08:24:27.970Z,19.31
2019-04-02T08:26:53.782Z,19.07
2019-04-02T08:29:19.981Z,18.79
2019-04-02T08:31:49.264Z,18.58
2019-04-02T08:34:15.064Z,18.32
2019-04-02T08:36:40.878Z,18.01
2019-04-02T08:39:07.278Z,17.97
2019-04-02T08:41:35.822Z,17.80
2019-04-02T08:44:01.949Z,17.57
2019-04-02T08:46:30.738Z,17.48
2019-04-02T08:48:56.799Z,17.56
2019-04-02T08:51:25.612Z,17.64
2019-04-02T08:53:51.412Z,17.84
2019-04-02T08:56:20.154Z,17.87
2019-04-02T08:58:51.648Z,18.00
2019-04-02T09:01:14.053Z,18.31
2019-04-02T09:03:39.882Z,18.17
2019-04-02T09:06:06.058Z,18.46
2019-04-02T09:08:31.855Z,18.57
2019-04-02T09:10:57.668Z,18.55
2019-04-02T09:13:28.831Z,18.66
2019-04-02T09:15:54.443Z,18.49
2019-04-02T09:18:21.288Z,18.56
2019-04-02T09:20:47.385Z,18.62
2019-04-02T09:23:18.104Z,18.95
2019-04-02T09:25:44.894Z,19.13
2019-04-02T09:28:10.694Z,19.23
2019-04-02T09:30:36.504Z,19.21
2019-04-02T09:33:05.304Z,19.08
2019-04-02T09:35:31.400Z,19.40
2019-04-02T09:37:57.206Z,19.94
2019-04-02T09:40:23.005Z,20.07
2019-04-02T09:42:48.813Z,20.00
2019-04-02T09:45:19.055Z,20.13
2019-04-02T09:47:45.149Z,19.92
2019-04-02T09:50:14.565Z,20.13
2019-04-02T09:52:40.474Z,20.13
2019-04-02T09:55:09.354Z,20.52
2019-04-02T09:57:35.431Z,20.72
2019-04-02T10:00:03.940Z,20.72
2019-04-02T10:02:30.596Z,20.73
2019-04-02T10:04:56.407Z,20.71
2019-04-02T10:07:22.758Z,20.97
2019-04-02T10:09:53.353Z,20.15
2019-04-02T10:12:19.906Z,20.15
2019-04-02T10:14:45.742Z,20.46
2019-04-02T10:17:11.586Z,20.46
2019-04-02T10:19:37.385Z,20.47
2019-04-02T10:22:06.368Z,20.53
2019-04-02T10:24:31.105Z,20.36
2019-04-02T10:27:00.015Z,20.70
2019-04-02T10:29:27.020Z,20.79
2019-04-02T10:31:53.295Z,20.81
2019-04-02T10:34:19.153Z,20.94
2019-04-02T10:36:56.210Z,20.65
2019-04-02T10:39:16.656Z,20.92
2019-04-02T10:41:42.568Z,20.90
2019-04-02T10:44:08.768Z,21.33
2019-04-02T10:46:38.325Z,21.58
2019-04-02T10:49:04.513Z,21.69
2019-04-02T10:51:30.313Z,21.57
2019-04-02T10:53:56.113Z,21.78
2019-04-02T10:56:22.180Z,21.67
2019-04-02T10:58:48.080Z,21.21
2019-04-02T11:01:14.451Z,21.38
2019-04-02T11:03:43.594Z,21.29
2019-04-02T11:06:09.406Z,21.47
2019-04-02T11:08:39.420Z,21.64
2019-04-02T11:11:05.344Z,21.54
2019-04-02T11:13:34.044Z,21.63
2019-04-02T11:15:59.820Z,21.58
2019-04-02T11:18:27.084Z,21.61
2019-04-02T11:20:52.905Z,21.78
2019-04-02T11:23:22.939Z,22.08
2019-04-02T11:25:49.521Z,22.29
2019-04-02T11:28:16.122Z,22.18
2019-04-02T11:30:41.935Z,22.58
2019-04-02T11:33:07.743Z,22.34
2019-04-02T11:35:33.668Z,22.28
2019-04-02T11:37:59.469Z,22.30
2019-04-02T11:40:28.146Z,22.61
2019-04-02T11:42:54.247Z,22.81
2019-04-02T11:45:22.978Z,22.58
2019-04-02T11:47:48.795Z,22.50
2019-04-02T11:50:17.250Z,22.49
2019-04-02T11:52:43.049Z,22.57
2019-04-02T11:55:12.323Z,22.64
2019-04-02T11:57:38.321Z,22.45
2019-04-02T12:00:08.703Z,22.21
2019-04-02T12:02:34.651Z,21.98
2019-04-02T12:05:00.454Z,22.12
2019-04-02T12:07:26.262Z,21.91
2019-04-02T12:09:52.093Z,22.04
2019-04-02T12:12:20.630Z,22.27
2019-04-02T12:14:46.739Z,22.14
2019-04-02T12:17:15.587Z,21.84
2019-04-02T12:19:42.812Z,21.76
2019-04-02T12:22:08.800Z,21.42
2019-04-02T12:24:34.609Z,21.46
2019-04-02T12:27:03.013Z,21.61
2019-04-02T12:29:29.099Z,21.51
2019-04-02T12:31:57.953Z,21.58
2019-04-02T12:34:23.732Z,21.76
2019-04-02T12:36:54.292Z,21.86
2019-04-02T12:39:20.123Z,21.96
2019-04-02T12:41:45.906Z,21.90
2019-04-02T12:44:11.828Z,21.92
2019-04-02T12:46:37.632Z,22.03
2019-04-02T12:49:07.746Z,22.07
2019-04-02T12:51:33.955Z,21.99
2019-04-02T12:54:00.895Z,21.97
2019-04-02T12:56:27.008Z,21.93
2019-04-02T12:58:55.600Z,21.91
2019-04-02T13:01:21.673Z,22.26
2019-04-02T13:03:50.504Z,22.29
2019-04-02T13:06:16.313Z,22.08
2019-04-02T13:08:44.910Z,22.16
2019-04-02T13:11:10.701Z,22.10
2019-04-02T13:13:39.302Z,22.26
2019-04-02T13:16:05.098Z,22.04
2019-04-02T13:18:31.633Z,21.97
2019-04-02T13:20:57.866Z,21.96
2019-04-02T13:23:23.959Z,22.44
2019-04-02T13:25:49.781Z,22.57
2019-04-02T13:28:15.586Z,22.16
2019-04-02T13:30:44.180Z,21.94
2019-04-02T13:33:09.975Z,22.07
2019-04-02T13:35:39.067Z,22.33
2019-04-02T13:38:04.958Z,22.78
2019-04-02T13:40:34.108Z,22.95
2019-04-02T13:42:59.910Z,22.94
2019-04-02T13:45:28.728Z,22.63
2019-04-02T13:47:54.579Z,22.43
2019-04-02T13:50:23.384Z,22.61
2019-04-02T13:52:49.161Z,22.98
2019-04-02T13:55:14.978Z,22.83
2019-04-02T13:57:41.056Z,22.59
2019-04-02T14:00:33.187Z,22.61
2019-04-02T14:02:59.029Z,22.88
2019-04-02T14:05:25.113Z,23.02
2019-04-02T14:07:51.209Z,22.90
2019-04-02T14:10:17.222Z,22.90
2019-04-02T14:12:43.033Z,23.09
2019-04-02T14:15:09.164Z,22.98
2019-04-02T14:17:34.943Z,22.78
2019-04-02T14:20:01.110Z,22.37
2019-04-02T14:22:26.930Z,22.39
2019-04-02T14:24:52.789Z,22.65
2019-04-02T14:27:18.592Z,22.88
2019-04-02T14:29:45.728Z,22.72
2019-04-02T14:32:11.995Z,22.87
2019-04-02T14:34:37.833Z,22.88
2019-04-02T14:37:03.651Z,22.87
2019-04-02T14:39:29.469Z,22.61
2019-04-02T14:41:55.305Z,22.89
2019-04-02T14:44:21.123Z,22.92
2019-04-02T14:46:47.158Z,23.22
2019-04-02T14:49:12.967Z,23.38
2019-04-02T14:51:39.494Z,23.31
2019-04-02T14:54:06.499Z,23.31
2019-04-02T14:56:32.706Z,23.14
2019-04-02T14:58:58.539Z,23.31
2019-04-02T15:01:26.469Z,23.41
2019-04-02T15:03:55.074Z,23.31
2019-04-02T15:06:21.189Z,23.28
2019-04-02T15:08:46.966Z,23.37
2019-04-02T15:11:12.769Z,23.53
2019-04-02T15:13:38.595Z,23.42
2019-04-02T15:16:07.152Z,23.28
2019-04-02T15:18:33.257Z,23.45
2019-04-02T15:21:00.409Z,23.73
2019-04-02T15:23:26.412Z,23.99
2019-04-02T15:25:55.527Z,23.78
2019-04-02T15:28:21.608Z,22.98
2019-04-02T15:30:50.624Z,22.22
2019-04-02T15:33:16.401Z,21.85
2019-04-02T15:35:45.195Z,21.55
2019-04-02T15:38:13.498Z,21.16
2019-04-02T15:40:39.266Z,21.01
2019-04-02T15:43:05.069Z,21.07
2019-04-02T15:45:30.986Z,21.17
2019-04-02T15:47:57.316Z,21.21
2019-04-02T15:50:23.183Z,21.12
2019-04-02T15:52:52.113Z,21.05
2019-04-02T15:55:17.900Z,21.34
2019-04-02T15:57:46.807Z,21.73
2019-04-02T16:00:25.876Z,21.65
2019-04-02T16:02:42.948Z,21.56
2019-04-02T16:05:10.079Z,21.67
2019-04-02T16:07:35.866Z,21.81
2019-04-02T16:10:07.192Z,21.91
2019-04-02T16:12:33.027Z,21.76
2019-04-02T16:14:58.844Z,21.19
2019-04-02T16:17:24.669Z,20.55
2019-04-02T16:19:50.439Z,20.25
2019-04-02T16:22:18.100Z,20.13
2019-04-02T16:24:44.249Z,20.13
2019-04-02T16:27:10.525Z,20.06
2019-04-02T16:29:36.989Z,20.07
2019-04-02T16:32:03.026Z,19.88
2019-04-02T16:34:38.307Z,19.95
2019-04-02T16:36:59.592Z,20.02
2019-04-02T16:39:25.449Z,20.02
2019-04-02T16:41:51.849Z,20.15
2019-04-02T16:44:21.024Z,20.26
2019-04-02T16:46:46.849Z,20.35
2019-04-02T16:49:15.679Z,20.34
2019-04-02T16:51:41.490Z,20.30
2019-04-02T16:54:10.126Z,20.16
2019-04-02T16:56:35.950Z,19.99
2019-04-02T16:59:01.746Z,19.88
2019-04-02T17:01:27.574Z,19.73
2019-04-02T17:03:53.374Z,19.57
2019-04-02T17:06:22.692Z,19.24
2019-04-02T17:08:48.773Z,18.77
2019-04-02T17:11:15.898Z,18.77
2019-04-02T17:13:41.996Z,18.62
2019-04-02T17:16:11.076Z,18.62
2019-04-02T17:18:37.865Z,18.55
2019-04-02T17:21:08.020Z,18.28
2019-04-02T17:23:34.113Z,18.28
2019-04-02T17:26:00.007Z,18.19
2019-04-02T17:28:32.212Z,17.84
2019-04-02T17:30:56.629Z,18.11
2019-04-02T17:33:22.471Z,18.06
2019-04-02T17:35:48.266Z,17.96
2019-04-02T17:38:14.451Z,17.89
2019-04-02T17:40:40.337Z,17.88
2019-04-02T17:43:06.581Z,17.82
2019-04-02T17:45:32.389Z,17.80
2019-04-02T17:48:01.730Z,17.81
2019-04-02T17:50:27.550Z,17.83
2019-04-02T17:52:56.351Z,17.71
2019-04-02T17:55:22.172Z,17.54
2019-04-02T17:57:52.734Z,17.54
2019-04-02T18:00:19.473Z,17.52
2019-04-02T18:02:47.276Z,17.41
2019-04-02T18:05:13.425Z,17.35
2019-04-02T18:07:42.232Z,17.15
2019-04-02T18:10:08.888Z,17.07
2019-04-02T18:12:34.995Z,17.02
2019-04-02T18:15:00.939Z,16.96
2019-04-02T18:17:26.744Z,17.00
2019-04-02T18:19:52.822Z,16.95
2019-04-02T18:22:18.629Z,16.90
2019-04-02T18:24:47.504Z,16.92
2019-04-02T18:27:13.807Z,16.94
2019-04-02T18:29:43.862Z,16.89
2019-04-02T18:32:09.949Z,16.86
2019-04-02T18:34:36.068Z,16.86
2019-04-02T18:37:02.210Z,16.87
2019-04-02T18:39:34.638Z,16.75
2019-04-02T18:42:00.403Z,16.66
2019-04-02T18:44:26.241Z,16.65
2019-04-02T18:46:52.254Z,16.55
2019-04-02T18:49:20.888Z,16.48
2019-04-02T18:51:46.123Z,16.42
2019-04-02T18:54:11.983Z,16.42
2019-04-02T18:56:37.813Z,16.44
2019-04-02T18:59:03.627Z,16.44
2019-04-02T19:01:32.785Z,16.49
2019-04-02T19:04:00.125Z,16.50
2019-04-02T19:06:26.364Z,16.46
2019-04-02T19:08:52.407Z,15.51
2019-04-02T19:11:22.754Z,16.48
2019-04-02T19:13:49.230Z,16.46
2019-04-02T19:16:17.846Z,16.43
2019-04-02T19:18:43.675Z,16.36
2019-04-02T19:21:12.466Z,16.31
2019-04-02T19:23:38.498Z,16.29
2019-04-02T19:26:04.292Z,16.40
2019-04-02T19:28:30.135Z,16.43
2019-04-02T19:30:55.952Z,16.34
2019-04-02T19:33:24.543Z,16.27
2019-04-02T19:35:50.643Z,16.06
2019-04-02T19:38:19.466Z,15.96
2019-04-02T19:40:45.335Z,15.95
2019-04-02T19:43:13.938Z,16.03
2019-04-02T19:45:39.773Z,16.10
2019-04-02T19:48:08.399Z,16.16
2019-04-02T19:50:34.199Z,16.15
2019-04-02T19:53:01.866Z,16.06
2019-04-02T19:55:27.730Z,15.95
2019-04-02T19:57:56.607Z,15.81
2019-04-02T20:00:22.901Z,15.61
2019-04-02T20:02:48.738Z,15.62
2019-04-02T20:05:14.652Z,15.66
2019-04-02T20:07:43.188Z,15.68
2019-04-02T20:10:08.733Z,15.68
2019-04-02T20:12:35.722Z,15.72
2019-04-02T20:15:06.717Z,15.65
2019-04-02T20:17:32.761Z,15.65
2019-04-02T20:19:58.583Z,15.67
2019-04-02T20:22:24.389Z,15.69
2019-04-02T20:24:53.237Z,15.78
2019-04-02T20:27:19.034Z,15.84
2019-04-02T20:29:49.437Z,15.84
2019-04-02T20:32:15.412Z,15.84
2019-04-02T20:34:41.331Z,15.76
2019-04-02T20:37:07.230Z,15.78
2019-04-02T20:39:33.029Z,15.82
2019-04-02T20:41:59.365Z,15.78
2019-04-02T20:44:25.251Z,15.81
2019-04-02T20:46:53.948Z,15.84
2019-04-02T20:49:19.764Z,15.89
2019-04-02T20:51:48.039Z,15.84
2019-04-02T20:54:13.883Z,15.88
2019-04-02T20:56:44.390Z,15.83
2019-04-02T20:59:10.433Z,15.77
2019-04-02T21:01:37.831Z,15.80
2019-04-02T21:04:04.003Z,15.88
2019-04-02T21:06:32.851Z,15.90
2019-04-02T21:08:58.659Z,15.89
2019-04-02T21:11:27.107Z,15.91
2019-04-02T21:13:52.924Z,15.76
2019-04-02T21:16:18.725Z,15.69
2019-04-02T21:18:45.216Z,15.74
2019-04-02T21:21:11.549Z,15.54
2019-04-02T21:23:38.967Z,15.30
2019-04-02T21:26:04.746Z,15.11
2019-04-02T21:28:35.173Z,14.97
2019-04-02T21:31:00.952Z,14.88
2019-04-02T21:33:34.196Z,14.87
2019-04-02T21:35:56.007Z,14.87
2019-04-02T21:38:24.834Z,14.85
2019-04-02T21:40:50.704Z,14.89
2019-04-02T21:43:19.319Z,14.83
2019-04-02T21:45:45.446Z,14.83
2019-04-02T21:48:14.520Z,14.83
2019-04-02T21:50:40.318Z,14.85
2019-04-02T21:53:06.730Z,14.87
2019-04-02T21:55:34.120Z,14.90
2019-04-02T21:58:00.080Z,14.89
2019-04-02T22:00:33.932Z,14.88
2019-04-02T22:02:59.730Z,14.90
2019-04-02T22:05:25.511Z,14.90
2019-04-02T22:07:51.317Z,14.90
2019-04-02T22:10:17.138Z,14.83
2019-04-02T22:12:43.312Z,14.82
2019-04-02T22:15:12.267Z,14.84
2019-04-02T22:17:38.559Z,14.77
2019-04-02T22:20:04.786Z,14.60
2019-04-02T22:22:31.587Z,14.56
2019-04-02T22:24:57.498Z,14.52
2019-04-02T22:27:23.329Z,14.55
2019-04-02T22:29:49.145Z,14.53
2019-04-02T22:32:15.603Z,14.53
2019-04-02T22:34:49.008Z,14.47
2019-04-02T22:37:10.129Z,14.44
2019-04-02T22:39:35.932Z,14.38
2019-04-02T22:42:04.837Z,14.41
2019-04-02T22:44:30.684Z,14.44
2019-04-02T22:46:59.614Z,14.37
2019-04-02T22:49:25.900Z,14.39
2019-04-02T22:51:56.411Z,14.38
2019-04-02T22:54:22.478Z,14.25
2019-04-02T22:56:48.404Z,14.09
2019-04-02T22:59:14.538Z,13.98
2019-04-02T23:01:43.100Z,13.91
2019-04-02T23:04:09.195Z,13.90
2019-04-02T23:06:35.006Z,13.83
2019-04-02T23:09:01.585Z,13.79
2019-04-02T23:11:28.528Z,13.76
2019-04-02T23:13:54.643Z,13.91
2019-04-02T23:16:25.665Z,13.94
2019-04-02T23:18:51.204Z,14.03
2019-04-02T23:21:17.017Z,13.96
2019-04-02T23:23:45.067Z,14.03
2019-04-02T23:26:11.911Z,14.01
2019-04-02T23:28:39.350Z,14.10
2019-04-02T23:31:05.155Z,14.03
2019-04-02T23:33:33.517Z,13.93
2019-04-02T23:35:59.325Z,13.95
2019-04-02T23:38:28.227Z,13.80
2019-04-02T23:44:35.588Z,13.82
2019-04-02T23:47:03.347Z,13.93
2019-04-02T23:49:31.582Z,13.98
2019-04-02T23:51:58.955Z,14.03
2019-04-02T23:54:25.572Z,14.07
2019-04-02T23:56:52.175Z,14.08
2019-04-02T23:59:18.743Z,13.90
